Portada
METAR-TAF:

METAR-TAF

Aeroports :

Alofi, Niue

latitud: 19-04S, longitud: 169-55W, altitud: 20 m

Observació

L'informe es va fer fa 48 minuts, a les 12:00 UTC
Vent 6 kt del Nord-Est
Temperatura 24°C
Humitat 100%
Pressió 1014 hPa

METAR: NIUE 171200Z AUTO 05006KT //// // ///////// 24/24 Q1014

Hora: 01:48 (12:48 UTC)

Pronòstic

L'informe es va fer fa 7 hores i 43 minuts, a les 05:05 UTC
Pronòstic vàlid del 17 a les 06 UTC al 18 a les 06 UTC
Vent 7 kt del Est/Nord-Est
Visibilitat 10 km o més
Núvols disperses a una alçada de 1800 ft
Cel ennuvolat a una alçada de 3000 ft
Cel cobert a una alçada de 10000 ft
Temporalment
l' 17 a les 06 UTC al 17 a les 24 UTC
Visibilitat: 3000 m
Cel ennuvolat a una alçada de 1200 ft
Escasses núvols a una alçada de 1700 ft, Cumulonimbus.
tempesta, pluja

TAF: NIUE 170505Z 1706/1806 06007KT 9999 SCT018 BKN030 OVC100 TEMPO 1706/1724 3000 TSRA BKN012 FEW017CB

Observacions i pronòstics meteorològics de més de 4000 aeroports (METAR i TAF).

Les estacions disponibles són els punts grocs i vermells al mapa.

Posi el ratolí al punt desitjat per veure el nom de l'estació.

Feu clic per veure les observacions i els pronòstics meteorològics.

Per canviar el mapa: feu clic els botons verds amb una creu de color negre per apropar; al botó verd amb un guió per allunyar la imatge; o en les fletxes verdes per a mapes adjacents.


METAR-TAF: